KSNS

Salinas Municipal Airport

Salinas, California, USA
METAR KSNS 182153Z 31012KT 10SM CLR 20/12 A3004 RMK AO2 SLP180 T02000122 $
Observed Flight Rules
Jun-18 @ 21:53 UTC (54 minutes ago) Visual Flight Rules
Wind Visibility Clouds
310° at 12 knots 10 miles
  • Clear skies
Temperatures Readings
Current 20°C / 68°F
Dewpoint 12°C / 54°F
Humidity 60%
Altimeter 30.04" Hg
Pressure 1018 hPa
Elevation 30
METAR KSNS 182153Z 31012KT 10SM CLR 20/12 A3004 RMK AO2 SLP180 T02000122 $
Observed Flight Rules
Jun-18 @ 21:53 UTC
(54 minutes ago)
VFR
Wind Visibility
310° at 12 knots 10 miles
Clouds
  • Clear skies
Temperature Dewpoint
20°C / 68°F 12°C / 54°F
Humidity Altimeter Pressure
60% 30.04" Hg 1018 hPa